createdAt,value
2023-01-01T00:01:27.767Z,12.50
2023-01-01T00:03:59.805Z,11.40
2023-01-01T00:06:30.376Z,12.30
2023-01-01T00:09:19.089Z,11.90
2023-01-01T00:11:49.792Z,16.60
2023-01-01T00:14:20.826Z,24.70
2023-01-01T00:16:51.383Z,33.30
2023-01-01T00:19:22.110Z,39.80
2023-01-01T00:21:53.974Z,42.20
2023-01-01T00:24:25.175Z,45.30
2023-01-01T00:26:55.800Z,49.20
2023-01-01T00:29:27.262Z,49.90
2023-01-01T00:31:57.804Z,46.30
2023-01-01T00:34:29.135Z,43.80
2023-01-01T00:37:00.275Z,43.20
2023-01-01T00:39:31.724Z,46.10
2023-01-01T00:42:02.202Z,43.90
2023-01-01T00:44:33.289Z,48.90
2023-01-01T00:47:03.821Z,48.80
2023-01-01T00:49:34.761Z,50.60
2023-01-01T00:52:05.591Z,42.80
2023-01-01T00:54:36.276Z,43.50
2023-01-01T00:57:06.890Z,42.50
2023-01-01T00:59:37.998Z,44.10
2023-01-01T01:02:08.623Z,47.70
2023-01-01T01:04:39.667Z,48.80
2023-01-01T01:07:10.196Z,54.70
2023-01-01T01:09:41.142Z,56.30
2023-01-01T01:12:18.031Z,47.60
2023-01-01T01:14:49.785Z,46.80
2023-01-01T01:17:20.279Z,45.90
2023-01-01T01:19:51.255Z,47.20
2023-01-01T01:22:28.050Z,50.90
2023-01-01T01:24:59.737Z,51.30
2023-01-01T01:27:30.525Z,56.80
2023-01-01T01:30:01.484Z,60.10
2023-01-01T01:32:32.073Z,48.30
2023-01-01T01:35:02.906Z,48.80
2023-01-01T01:37:33.435Z,50.00
2023-01-01T01:40:04.909Z,48.10
2023-01-01T01:42:35.367Z,51.20
2023-01-01T01:45:07.419Z,54.30
2023-01-01T01:47:40.675Z,58.80
2023-01-01T01:52:42.773Z,59.60
2023-01-01T01:55:13.898Z,54.90
2023-01-01T01:57:44.546Z,50.80
2023-01-01T02:00:16.926Z,49.20
2023-01-01T02:02:52.415Z,50.00
2023-01-01T02:05:23.911Z,50.20
2023-01-01T02:07:55.100Z,51.60
2023-01-01T02:10:27.620Z,57.70
2023-01-01T02:12:58.304Z,53.80
2023-01-01T02:15:30.732Z,50.80
2023-01-01T02:18:02.957Z,45.40
2023-01-01T02:20:45.436Z,46.70
2023-01-01T02:23:32.389Z,51.20
2023-01-01T02:26:11.033Z,53.70
2023-01-01T02:28:50.134Z,49.90
2023-01-01T02:31:23.949Z,44.30
2023-01-01T02:33:56.537Z,46.50
2023-01-01T02:36:27.900Z,42.50
2023-01-01T02:38:59.401Z,43.30
2023-01-01T02:41:32.275Z,37.70
2023-01-01T02:46:34.370Z,44.20
2023-01-01T02:49:10.321Z,47.50
2023-01-01T02:51:48.394Z,35.70
2023-01-01T02:54:26.756Z,24.80
2023-01-01T02:56:59.873Z,26.90
2023-01-01T02:59:51.854Z,26.30
2023-01-01T03:02:25.747Z,25.80
2023-01-01T03:05:02.714Z,29.30
2023-01-01T03:07:37.307Z,31.30
2023-01-01T03:10:11.598Z,29.10
2023-01-01T03:12:45.339Z,25.30
2023-01-01T03:15:26.620Z,24.20
2023-01-01T03:18:00.511Z,28.70
2023-01-01T03:20:32.926Z,33.00
2023-01-01T03:23:07.931Z,31.50
2023-01-01T03:25:40.416Z,28.50
2023-01-01T03:28:13.749Z,27.50
2023-01-01T03:30:47.320Z,27.10
2023-01-01T03:33:19.416Z,30.80
2023-01-01T03:35:51.732Z,33.30
2023-01-01T03:38:25.540Z,32.10
2023-01-01T03:40:59.443Z,28.50
2023-01-01T03:43:33.358Z,28.70
2023-01-01T03:46:05.765Z,31.20
2023-01-01T03:49:02.758Z,33.90
2023-01-01T03:51:40.664Z,35.40
2023-01-01T03:54:15.661Z,37.60
2023-01-01T03:56:47.976Z,33.00
2023-01-01T03:59:23.226Z,30.30
2023-01-01T04:01:55.111Z,27.50
2023-01-01T04:04:27.041Z,30.90
2023-01-01T04:07:09.356Z,33.70
2023-01-01T04:09:50.728Z,35.70
2023-01-01T04:12:22.150Z,33.90
2023-01-01T04:14:52.903Z,30.30
2023-01-01T04:17:23.753Z,27.80
2023-01-01T04:19:55.421Z,24.50
2023-01-01T04:22:26.677Z,24.30
2023-01-01T04:24:57.475Z,31.10
2023-01-01T04:27:28.818Z,26.60
2023-01-01T04:29:59.461Z,24.30
2023-01-01T04:32:30.600Z,26.70
2023-01-01T04:35:01.952Z,26.40
2023-01-01T04:37:32.711Z,28.90
2023-01-01T04:40:03.511Z,30.00
2023-01-01T04:42:34.309Z,30.50
2023-01-01T04:45:05.190Z,27.10
2023-01-01T04:47:35.871Z,26.40
2023-01-01T04:50:07.229Z,25.40
2023-01-01T04:52:37.932Z,27.10
2023-01-01T04:55:09.707Z,30.80
2023-01-01T04:57:40.412Z,32.20
2023-01-01T05:00:13.867Z,31.50
2023-01-01T05:02:44.650Z,31.70
2023-01-01T05:05:15.657Z,26.80
2023-01-01T05:07:46.598Z,25.60
2023-01-01T05:10:17.425Z,25.40
2023-01-01T05:12:48.368Z,25.70
2023-01-01T05:15:19.205Z,26.50
2023-01-01T05:17:49.825Z,26.10
2023-01-01T05:20:20.669Z,27.80
2023-01-01T05:22:51.709Z,28.90
2023-01-01T05:25:22.649Z,20.20
2023-01-01T05:27:53.900Z,22.30
2023-01-01T05:30:26.274Z,21.00
2023-01-01T05:32:57.415Z,24.70
2023-01-01T05:35:28.849Z,28.30
2023-01-01T05:38:00.301Z,27.80
2023-01-01T05:40:31.650Z,28.70
2023-01-01T05:43:02.380Z,33.10
2023-01-01T05:45:33.247Z,34.10
2023-01-01T05:48:04.378Z,35.00
2023-01-01T05:50:35.166Z,35.30
2023-01-01T05:53:06.150Z,29.40
2023-01-01T05:55:36.871Z,32.00
2023-01-01T05:58:07.805Z,31.20
2023-01-01T06:00:38.538Z,36.30
2023-01-01T06:03:09.226Z,31.30
2023-01-01T06:05:40.054Z,30.00
2023-01-01T06:08:10.641Z,30.50
2023-01-01T06:10:41.484Z,24.50
2023-01-01T06:13:13.515Z,23.40
2023-01-01T06:15:44.475Z,35.00
2023-01-01T06:18:15.108Z,28.10
2023-01-01T06:20:45.859Z,26.40
2023-01-01T06:23:16.416Z,25.70
2023-01-01T06:25:47.726Z,25.10
2023-01-01T06:28:18.455Z,23.30
2023-01-01T06:30:49.327Z,23.90
2023-01-01T06:33:20.273Z,21.40
2023-01-01T06:35:51.065Z,26.00
2023-01-01T06:38:22.831Z,22.30
2023-01-01T06:41:01.580Z,25.30
2023-01-01T06:43:32.675Z,21.10
2023-01-01T06:46:05.257Z,14.40
2023-01-01T06:48:36.816Z,17.30
2023-01-01T06:51:08.774Z,16.90
2023-01-01T06:53:39.913Z,18.10
2023-01-01T06:56:11.509Z,17.00
2023-01-01T06:58:42.196Z,17.20
2023-01-01T07:01:14.154Z,17.10
2023-01-01T07:03:45.514Z,18.70
2023-01-01T07:06:16.467Z,17.60
2023-01-01T07:08:47.090Z,19.10
2023-01-01T07:11:17.807Z,16.60
2023-01-01T07:13:48.606Z,15.20
2023-01-01T07:16:19.391Z,14.90
2023-01-01T07:18:50.812Z,14.50
2023-01-01T07:21:29.522Z,15.60
2023-01-01T07:24:01.730Z,15.00
2023-01-01T07:26:33.426Z,15.80
2023-01-01T07:29:07.801Z,14.30
2023-01-01T07:31:40.555Z,13.10
2023-01-01T07:34:14.124Z,12.90
2023-01-01T07:36:44.914Z,14.10
2023-01-01T07:39:15.855Z,13.50
2023-01-01T07:41:47.097Z,12.60
2023-01-01T07:44:17.637Z,11.20
2023-01-01T07:46:48.710Z,12.80
2023-01-01T07:49:19.661Z,12.90
2023-01-01T07:51:51.346Z,12.60
2023-01-01T07:54:21.985Z,12.70
2023-01-01T07:56:52.784Z,12.20
2023-01-01T07:59:23.357Z,11.30
2023-01-01T08:01:54.317Z,10.50
2023-01-01T08:04:26.893Z,12.20
2023-01-01T08:06:57.702Z,12.40
2023-01-01T08:09:28.223Z,11.90
2023-01-01T08:11:59.584Z,14.00
2023-01-01T08:14:30.199Z,13.80
2023-01-01T08:17:01.163Z,11.00
2023-01-01T08:19:31.679Z,13.10
2023-01-01T08:22:02.908Z,13.50
2023-01-01T08:24:33.348Z,13.30
2023-01-01T08:27:04.584Z,13.60
2023-01-01T08:29:35.121Z,12.80
2023-01-01T08:32:06.661Z,12.00
2023-01-01T08:34:37.411Z,11.50
2023-01-01T08:37:08.640Z,13.50
2023-01-01T08:39:39.081Z,13.00
2023-01-01T08:42:12.407Z,14.20
2023-01-01T08:44:43.301Z,13.60
2023-01-01T08:47:20.199Z,14.40
2023-01-01T08:49:51.026Z,11.70
2023-01-01T08:52:22.731Z,11.80
2023-01-01T08:54:53.507Z,12.60
2023-01-01T08:57:24.354Z,14.30
2023-01-01T08:59:54.971Z,14.10
2023-01-01T09:02:26.201Z,13.80
2023-01-01T09:04:56.844Z,14.30
2023-01-01T09:07:27.778Z,12.80
2023-01-01T09:09:58.313Z,13.10
2023-01-01T09:12:29.470Z,12.60
2023-01-01T09:15:00.007Z,12.50
2023-01-01T09:17:30.920Z,13.60
2023-01-01T09:20:01.554Z,13.60
2023-01-01T09:22:32.595Z,12.70
2023-01-01T09:25:03.139Z,13.80
2023-01-01T09:27:34.057Z,14.60
2023-01-01T09:30:05.119Z,13.20
2023-01-01T09:32:36.081Z,11.20
2023-01-01T09:35:07.712Z,12.60
2023-01-01T09:37:38.530Z,12.80
2023-01-01T09:40:15.420Z,14.20
2023-01-01T09:42:50.400Z,14.70
2023-01-01T09:45:24.547Z,13.80
2023-01-01T09:47:56.640Z,13.70
2023-01-01T09:50:31.042Z,13.20
2023-01-01T09:53:02.469Z,12.50
2023-01-01T09:55:45.373Z,11.60
2023-01-01T09:58:16.681Z,13.30
2023-01-01T10:00:50.177Z,12.30
2023-01-01T10:03:34.507Z,13.30
2023-01-01T10:06:08.817Z,12.50
2023-01-01T10:08:44.541Z,12.60
2023-01-01T10:11:19.550Z,12.90
2023-01-01T10:13:51.854Z,13.10
2023-01-01T10:16:30.665Z,10.80
2023-01-01T10:19:03.483Z,12.00
2023-01-01T10:21:35.568Z,11.90
2023-01-01T10:24:11.915Z,13.30
2023-01-01T10:26:42.643Z,12.40
2023-01-01T10:29:16.303Z,12.90
2023-01-01T10:31:47.438Z,14.30
2023-01-01T10:34:20.670Z,12.40
2023-01-01T10:36:53.421Z,12.50
2023-01-01T10:39:24.549Z,11.80
2023-01-01T10:41:55.154Z,13.70
2023-01-01T10:44:28.319Z,11.00
2023-01-01T10:47:00.243Z,11.00
2023-01-01T10:49:31.121Z,11.10
2023-01-01T10:52:02.973Z,11.90
2023-01-01T10:54:38.421Z,12.60
2023-01-01T10:57:19.908Z,11.00
2023-01-01T10:59:54.436Z,11.60
2023-01-01T11:02:26.490Z,11.00
2023-01-01T11:05:21.464Z,10.10
2023-01-01T11:07:52.853Z,12.20
2023-01-01T11:10:25.844Z,11.80
2023-01-01T11:13:05.496Z,10.70
2023-01-01T11:15:39.914Z,11.80
2023-01-01T11:18:13.817Z,11.30
2023-01-01T11:20:44.889Z,11.00
2023-01-01T11:23:28.726Z,10.20
2023-01-01T11:26:04.371Z,10.00
2023-01-01T11:28:35.759Z,10.10
2023-01-01T11:31:11.396Z,10.10
2023-01-01T11:33:45.424Z,10.50
2023-01-01T11:36:23.828Z,10.10
2023-01-01T11:39:05.897Z,10.30
2023-01-01T11:41:43.847Z,10.00
2023-01-01T11:44:23.431Z,9.20
2023-01-01T11:46:54.321Z,8.60
2023-01-01T11:49:27.232Z,8.40
2023-01-01T11:51:58.839Z,7.60
2023-01-01T11:54:36.221Z,8.20
2023-01-01T11:57:14.853Z,7.80
2023-01-01T11:59:48.421Z,7.60
2023-01-01T12:02:34.275Z,7.80
2023-01-01T12:05:10.767Z,7.10
2023-01-01T12:07:44.479Z,7.80
2023-01-01T12:10:18.866Z,7.80
2023-01-01T12:12:52.749Z,8.50
2023-01-01T12:15:27.787Z,8.50
2023-01-01T12:18:02.747Z,9.00
2023-01-01T12:20:35.004Z,8.30
2023-01-01T12:23:06.032Z,8.80
2023-01-01T12:25:38.923Z,8.60
2023-01-01T12:28:16.873Z,8.50
2023-01-01T12:30:51.018Z,9.10
2023-01-01T12:33:28.672Z,9.40
2023-01-01T12:36:04.591Z,8.80
2023-01-01T12:38:46.063Z,9.30
2023-01-01T12:41:24.676Z,10.50
2023-01-01T12:44:02.344Z,9.80
2023-01-01T12:46:40.733Z,8.70
2023-01-01T12:49:22.240Z,9.60
2023-01-01T12:51:58.448Z,9.50
2023-01-01T12:54:44.608Z,8.90
2023-01-01T13:11:03.731Z,8.80
2023-01-01T13:13:34.723Z,8.40
2023-01-01T13:16:05.938Z,8.50
2023-01-01T13:18:37.190Z,7.40
2023-01-01T13:21:20.028Z,7.80
2023-01-01T13:23:52.475Z,9.50
2023-01-01T13:26:36.495Z,9.30
2023-01-01T13:29:24.686Z,9.50
2023-01-01T13:32:08.623Z,8.60
2023-01-01T13:35:00.634Z,9.50
2023-01-01T13:37:45.087Z,9.10
2023-01-01T13:40:50.397Z,10.40
2023-01-01T13:43:29.836Z,10.20
2023-01-01T13:46:12.362Z,10.20
2023-01-01T13:48:51.374Z,10.00
2023-01-01T13:54:49.450Z,10.00
2023-01-01T13:57:30.562Z,9.30
2023-01-01T14:00:05.960Z,9.90
2023-01-01T14:02:45.451Z,10.00
2023-01-01T14:05:18.291Z,9.80
2023-01-01T14:07:52.303Z,10.50
2023-01-01T14:10:26.389Z,10.40
2023-01-01T14:12:59.355Z,9.80
2023-01-01T14:15:31.114Z,9.20
2023-01-01T14:18:02.859Z,9.80
2023-01-01T14:20:35.882Z,9.90
2023-01-01T14:23:10.724Z,9.60
2023-01-01T14:25:42.364Z,9.30
2023-01-01T14:28:16.334Z,9.40
2023-01-01T14:30:47.379Z,10.00
2023-01-01T14:33:28.497Z,9.10
2023-01-01T14:36:00.644Z,10.20
2023-01-01T14:38:33.537Z,9.30
2023-01-01T14:41:12.982Z,9.80
2023-01-01T14:43:44.766Z,10.00
2023-01-01T14:46:18.123Z,10.70
2023-01-01T14:48:51.027Z,10.30
2023-01-01T14:51:23.808Z,10.40
2023-01-01T14:53:55.602Z,11.80
2023-01-01T14:56:27.989Z,10.10
2023-01-01T15:01:28.949Z,9.90
2023-01-01T15:04:01.245Z,10.30
2023-01-01T15:06:33.665Z,10.30
2023-01-01T15:09:04.353Z,9.90
2023-01-01T15:11:35.496Z,10.40
2023-01-01T15:14:06.036Z,11.40
2023-01-01T15:16:40.570Z,11.10
2023-01-01T15:19:20.702Z,10.20
2023-01-01T15:21:51.635Z,9.80
2023-01-01T15:24:26.362Z,11.10
2023-01-01T15:26:58.011Z,11.40
2023-01-01T15:29:32.991Z,11.90
2023-01-01T15:32:05.130Z,10.70
2023-01-01T15:34:37.181Z,11.10
2023-01-01T15:37:10.287Z,10.30
2023-01-01T15:39:51.762Z,10.80
2023-01-01T15:42:30.032Z,11.40
2023-01-01T15:45:15.040Z,11.80
2023-01-01T15:47:47.655Z,10.90
2023-01-01T15:50:23.308Z,11.80
2023-01-01T15:52:56.208Z,11.00
2023-01-01T15:55:27.651Z,10.10
2023-01-01T15:57:59.198Z,11.40
2023-01-01T16:00:30.807Z,12.60
2023-01-01T16:03:03.238Z,14.40
2023-01-01T16:05:33.908Z,14.10
2023-01-01T16:08:05.576Z,14.90
2023-01-01T16:10:36.077Z,14.10
2023-01-01T16:13:07.666Z,14.60
2023-01-01T16:15:38.363Z,13.60
2023-01-01T16:18:13.444Z,15.90
2023-01-01T16:20:43.858Z,13.70
2023-01-01T16:23:14.985Z,13.50
2023-01-01T16:25:45.513Z,15.30
2023-01-01T16:28:16.444Z,15.20
2023-01-01T16:30:47.889Z,16.00
2023-01-01T16:33:20.777Z,15.40
2023-01-01T16:35:51.212Z,16.10
2023-01-01T16:38:23.164Z,16.50
2023-01-01T16:40:53.999Z,16.40
2023-01-01T16:43:24.956Z,15.90
2023-01-01T16:45:55.714Z,17.70
2023-01-01T16:48:26.928Z,14.80
2023-01-01T16:50:57.559Z,14.70
2023-01-01T16:53:28.691Z,17.00
2023-01-01T16:55:59.741Z,17.60
2023-01-01T17:01:21.915Z,17.70
2023-01-01T17:03:53.745Z,15.50
2023-01-01T17:06:24.433Z,16.70
2023-01-01T17:08:55.519Z,17.90
2023-01-01T17:11:25.953Z,16.00
2023-01-01T17:13:56.979Z,18.90
2023-01-01T17:16:34.453Z,19.20
2023-01-01T17:19:16.779Z,18.70
2023-01-01T17:21:49.906Z,18.60
2023-01-01T17:24:21.736Z,16.60
2023-01-01T17:26:53.305Z,18.00
2023-01-01T17:29:25.040Z,15.70
2023-01-01T17:31:55.558Z,17.30
2023-01-01T17:34:26.595Z,17.90
2023-01-01T17:36:57.131Z,17.60
2023-01-01T17:39:28.376Z,17.80
2023-01-01T17:41:59.346Z,18.10
2023-01-01T17:44:31.106Z,16.80
2023-01-01T17:47:02.005Z,17.10
2023-01-01T17:49:33.633Z,16.40
2023-01-01T17:52:04.295Z,18.40
2023-01-01T17:54:35.605Z,18.50
2023-01-01T17:57:06.119Z,20.60
2023-01-01T17:59:37.484Z,19.90
2023-01-01T18:02:11.946Z,20.50
2023-01-01T18:04:43.189Z,21.60
2023-01-01T18:07:13.809Z,21.50
2023-01-01T18:09:44.957Z,21.40
2023-01-01T18:12:15.578Z,19.70
2023-01-01T18:14:46.520Z,20.40
2023-01-01T18:17:17.011Z,24.30
2023-01-01T18:19:48.512Z,25.30
2023-01-01T18:22:19.129Z,24.80
2023-01-01T18:24:50.485Z,22.60
2023-01-01T18:27:21.516Z,22.70
2023-01-01T18:29:52.448Z,21.10
2023-01-01T18:32:22.940Z,20.60
2023-01-01T18:34:53.869Z,26.00
2023-01-01T18:37:25.065Z,23.40
2023-01-01T18:39:59.851Z,25.10
2023-01-01T18:42:36.294Z,23.40
2023-01-01T18:45:14.778Z,23.90
2023-01-01T18:47:46.893Z,26.40
2023-01-01T18:50:23.933Z,26.90
2023-01-01T18:52:55.775Z,25.30
2023-01-01T18:55:28.318Z,23.80
2023-01-01T18:58:01.008Z,24.60
2023-01-01T19:00:33.521Z,25.40
2023-01-01T19:03:05.149Z,25.90
2023-01-01T19:05:37.029Z,28.30
2023-01-01T19:08:14.059Z,27.00
2023-01-01T19:10:46.344Z,27.10
2023-01-01T19:13:19.014Z,25.90
2023-01-01T19:15:51.618Z,25.00
2023-01-01T19:18:24.001Z,25.90
2023-01-01T19:20:59.720Z,24.60
2023-01-01T19:23:31.455Z,23.70
2023-01-01T19:26:04.178Z,25.20
2023-01-01T19:28:35.859Z,30.50
2023-01-01T19:31:07.650Z,29.70
2023-01-01T19:33:38.294Z,31.30
2023-01-01T19:36:10.260Z,30.30
2023-01-01T19:38:40.923Z,30.20
2023-01-01T19:41:12.064Z,32.10
2023-01-01T19:43:42.626Z,29.80
2023-01-01T19:46:14.240Z,29.40
2023-01-01T19:48:44.986Z,29.70
2023-01-01T19:51:16.137Z,28.90
2023-01-01T19:53:46.653Z,31.30
2023-01-01T19:56:18.164Z,29.50
2023-01-01T19:58:49.446Z,33.60
2023-01-01T20:01:21.019Z,31.20
2023-01-01T20:03:54.501Z,26.70
2023-01-01T20:06:26.762Z,34.90
2023-01-01T20:08:57.295Z,31.90
2023-01-01T20:11:32.023Z,35.70
2023-01-01T20:14:02.738Z,35.80
2023-01-01T20:16:34.896Z,36.50
2023-01-01T20:19:05.466Z,32.30
2023-01-01T20:21:54.715Z,32.40
2023-01-01T20:24:25.351Z,31.00
2023-01-01T20:26:57.006Z,32.70
2023-01-01T20:29:28.768Z,34.10
2023-01-01T20:32:00.234Z,40.00
2023-01-01T20:34:31.015Z,46.10
2023-01-01T20:37:20.113Z,44.90
2023-01-01T20:39:50.759Z,41.70
2023-01-01T20:42:22.256Z,43.40
2023-01-01T20:44:52.836Z,43.90
2023-01-01T20:47:24.479Z,37.90
2023-01-01T20:49:56.991Z,56.00
2023-01-01T20:52:28.777Z,38.10
2023-01-01T20:54:59.463Z,40.80
2023-01-01T20:57:30.492Z,38.10
2023-01-01T21:00:01.220Z,41.90
2023-01-01T21:02:32.805Z,40.60
2023-01-01T21:05:07.862Z,42.00
2023-01-01T21:07:39.153Z,44.50
2023-01-01T21:10:10.563Z,43.40
2023-01-01T21:12:41.783Z,34.00
2023-01-01T21:15:15.242Z,39.10
2023-01-01T21:17:46.072Z,47.90
2023-01-01T21:20:16.810Z,40.60
2023-01-01T21:22:48.218Z,44.20
2023-01-01T21:25:49.829Z,41.40
2023-01-01T21:28:14.610Z,46.30
2023-01-01T21:30:48.731Z,42.00
2023-01-01T21:33:24.013Z,42.30
2023-01-01T21:35:54.742Z,39.70
2023-01-01T21:38:26.660Z,39.20
2023-01-01T21:40:58.774Z,43.50
2023-01-01T21:43:37.577Z,45.10
2023-01-01T21:46:19.973Z,41.10
2023-01-01T21:48:55.769Z,50.50
2023-01-01T21:51:27.375Z,43.60
2023-01-01T21:54:03.869Z,46.40
2023-01-01T21:56:36.299Z,46.00
2023-01-01T21:59:29.146Z,49.00
2023-01-01T22:02:16.839Z,44.60
2023-01-01T22:04:48.315Z,49.90
2023-01-01T22:10:15.661Z,51.10
2023-01-01T22:15:29.083Z,53.80
2023-01-01T22:18:10.672Z,47.40
2023-01-01T22:20:41.928Z,49.40
2023-01-01T22:23:18.372Z,47.90
2023-01-01T22:25:49.487Z,47.70
2023-01-01T22:28:22.882Z,50.20
2023-01-01T22:30:55.828Z,50.40
2023-01-01T22:33:28.669Z,47.80
2023-01-01T22:35:59.908Z,44.30
2023-01-01T22:38:34.217Z,44.90
2023-01-01T22:41:04.881Z,44.40
2023-01-01T22:43:36.109Z,42.80
2023-01-01T22:46:13.035Z,45.90
2023-01-01T22:48:43.546Z,46.10
2023-01-01T22:51:18.161Z,44.00
2023-01-01T22:53:48.927Z,46.00
2023-01-01T22:56:20.550Z,43.70
2023-01-01T22:58:57.321Z,43.00
2023-01-01T23:01:28.801Z,42.50
2023-01-01T23:03:59.492Z,44.10
2023-01-01T23:06:30.356Z,47.40
2023-01-01T23:09:00.830Z,47.70
2023-01-01T23:11:32.504Z,46.40
2023-01-01T23:14:20.960Z,46.30
2023-01-01T23:16:51.982Z,44.30
2023-01-01T23:19:22.508Z,46.50
2023-01-01T23:21:53.336Z,49.90
2023-01-01T23:24:24.379Z,50.60
2023-01-01T23:26:55.456Z,49.20
2023-01-01T23:29:28.283Z,48.50
2023-01-01T23:31:59.345Z,44.90
2023-01-01T23:34:30.074Z,45.20
2023-01-01T23:37:01.076Z,44.20
2023-01-01T23:39:31.541Z,47.10
2023-01-01T23:42:02.682Z,41.90
2023-01-01T23:44:33.111Z,47.70
2023-01-01T23:47:04.612Z,45.50
2023-01-01T23:49:35.150Z,46.00
2023-01-01T23:52:06.640Z,41.50
2023-01-01T23:54:39.158Z,51.20
2023-01-01T23:57:10.059Z,48.10
2023-01-01T23:59:40.937Z,49.00
